createdAt,value
2022-11-24T00:02:40.059Z,98.89
2022-11-24T00:05:42.318Z,98.86
2022-11-24T00:08:45.983Z,99.18
2022-11-24T00:11:48.163Z,98.70
2022-11-24T00:14:50.310Z,98.87
2022-11-24T00:17:52.482Z,99.23
2022-11-24T00:20:54.672Z,98.68
2022-11-24T00:23:57.733Z,98.54
2022-11-24T00:26:59.879Z,98.46
2022-11-24T00:30:02.050Z,97.68
2022-11-24T00:33:04.326Z,98.33
2022-11-24T00:36:06.602Z,97.61
2022-11-24T00:39:12.652Z,97.85
2022-11-24T00:42:14.929Z,97.56
2022-11-24T00:45:17.098Z,97.25
2022-11-24T00:48:19.298Z,97.20
2022-11-24T00:51:23.767Z,97.90
2022-11-24T00:54:25.998Z,98.20
2022-11-24T00:57:28.149Z,97.55
2022-11-24T01:00:30.326Z,97.72
2022-11-24T01:03:33.080Z,97.94
2022-11-24T01:06:36.206Z,97.55
2022-11-24T01:09:38.367Z,97.68
2022-11-24T01:12:40.574Z,97.57
2022-11-24T01:15:42.818Z,97.54
2022-11-24T01:18:45.524Z,97.46
2022-11-24T01:21:47.717Z,97.63
2022-11-24T01:24:49.963Z,97.99
2022-11-24T01:27:52.596Z,98.15
2022-11-24T01:31:01.986Z,97.98
2022-11-24T01:34:04.161Z,97.89
2022-11-24T01:37:06.358Z,98.00
2022-11-24T01:40:09.257Z,97.62
2022-11-24T01:43:19.639Z,98.31
2022-11-24T01:46:41.875Z,98.60
2022-11-24T01:49:50.623Z,98.44
2022-11-24T01:52:55.573Z,98.26
2022-11-24T01:55:58.103Z,98.59
2022-11-24T01:59:02.810Z,98.59
2022-11-24T02:02:05.557Z,98.52
2022-11-24T02:05:13.555Z,98.36
2022-11-24T02:08:40.334Z,98.74
2022-11-24T02:11:43.722Z,97.91
2022-11-24T02:14:46.289Z,98.42
2022-11-24T02:17:48.476Z,98.44
2022-11-24T02:20:50.781Z,98.33
2022-11-24T02:24:28.031Z,98.47
2022-11-24T02:27:30.883Z,98.10
2022-11-24T02:30:33.087Z,97.83
2022-11-24T02:33:36.642Z,98.28
2022-11-24T02:36:38.795Z,98.16
2022-11-24T02:39:41.010Z,97.83
2022-11-24T02:42:46.311Z,97.74
2022-11-24T02:45:48.513Z,97.91
2022-11-24T02:48:50.823Z,97.85
2022-11-24T02:51:52.987Z,97.52
2022-11-24T02:54:55.137Z,97.29
2022-11-24T02:57:57.408Z,97.02
2022-11-24T03:00:59.896Z,96.72
2022-11-24T03:04:02.094Z,97.29
2022-11-24T03:07:04.352Z,96.61
2022-11-24T03:10:07.103Z,97.16
2022-11-24T03:13:09.266Z,97.07
2022-11-24T03:16:11.558Z,96.51
2022-11-24T03:19:13.811Z,96.99
2022-11-24T03:22:16.061Z,96.76
2022-11-24T03:25:18.862Z,96.77
2022-11-24T03:28:21.175Z,96.38
2022-11-24T03:31:24.224Z,96.20
2022-11-24T03:34:26.436Z,95.75
2022-11-24T03:37:28.612Z,95.96
2022-11-24T03:40:30.809Z,95.85
2022-11-24T03:43:33.019Z,95.98
2022-11-24T03:46:35.262Z,95.91
2022-11-24T03:49:37.562Z,95.98
2022-11-24T03:52:39.726Z,95.40
2022-11-24T03:55:43.516Z,95.35
2022-11-24T03:58:45.697Z,95.53
2022-11-24T04:01:47.922Z,95.22
2022-11-24T04:04:52.511Z,95.42
2022-11-24T04:07:57.820Z,95.47
2022-11-24T04:11:00.042Z,94.67
2022-11-24T04:14:02.203Z,95.06
2022-11-24T04:17:04.741Z,95.14
2022-11-24T04:20:07.432Z,95.00
2022-11-24T04:23:10.885Z,94.96
2022-11-24T04:26:13.480Z,94.59
2022-11-24T04:29:15.773Z,94.40
2022-11-24T04:32:18.070Z,94.94
2022-11-24T04:35:20.959Z,94.70
2022-11-24T04:39:19.482Z,94.40
2022-11-24T04:41:47.186Z,93.93
2022-11-24T04:44:49.351Z,94.25
2022-11-24T04:47:51.575Z,93.81
2022-11-24T04:50:53.925Z,93.16
2022-11-24T04:53:56.081Z,93.16
2022-11-24T04:56:58.241Z,93.42
2022-11-24T05:00:00.395Z,93.44
2022-11-24T05:03:02.567Z,92.62
2022-11-24T05:06:05.091Z,93.02
2022-11-24T05:09:08.156Z,93.04
2022-11-24T05:12:10.381Z,92.34
2022-11-24T05:15:12.533Z,92.34
2022-11-24T05:18:18.243Z,92.24
2022-11-24T05:21:20.479Z,92.49
2022-11-24T05:24:22.680Z,91.96
2022-11-24T05:27:25.291Z,92.42
2022-11-24T05:30:28.256Z,92.22
2022-11-24T05:33:33.254Z,90.84
2022-11-24T05:36:53.547Z,91.90
2022-11-24T05:40:02.393Z,91.54
2022-11-24T05:43:04.634Z,91.56
2022-11-24T05:46:06.849Z,91.18
2022-11-24T05:49:09.084Z,90.95
2022-11-24T05:52:11.382Z,90.93
2022-11-24T05:55:15.211Z,91.27
2022-11-24T05:58:17.510Z,91.01
2022-11-24T06:01:19.753Z,90.81
2022-11-24T06:04:21.988Z,90.83
2022-11-24T06:07:24.866Z,90.93
2022-11-24T06:10:30.185Z,90.37
2022-11-24T06:13:32.543Z,89.97
2022-11-24T06:16:34.884Z,90.77
2022-11-24T06:19:41.750Z,89.95
2022-11-24T06:22:44.371Z,89.78
2022-11-24T06:25:51.375Z,89.90
2022-11-24T06:28:53.937Z,89.50
2022-11-24T06:31:56.357Z,89.95
2022-11-24T06:34:58.613Z,90.25
2022-11-24T06:38:00.824Z,90.33
2022-11-24T06:41:06.419Z,89.73
2022-11-24T06:44:08.788Z,90.07
2022-11-24T06:47:11.018Z,90.42
2022-11-24T06:50:13.319Z,91.26
2022-11-24T06:53:15.613Z,90.90
2022-11-24T06:56:20.522Z,91.04
2022-11-24T06:59:22.825Z,91.74
2022-11-24T07:02:25.102Z,91.78
2022-11-24T07:05:31.414Z,91.09
2022-11-24T07:08:33.712Z,91.75
2022-11-24T07:11:37.524Z,91.50
2022-11-24T07:14:42.664Z,91.88
2022-11-24T07:17:45.144Z,91.42
2022-11-24T07:20:47.502Z,90.61
2022-11-24T07:23:55.287Z,90.37
2022-11-24T07:26:57.755Z,90.06
2022-11-24T07:30:00.025Z,90.09
2022-11-24T07:33:03.396Z,89.57
2022-11-24T07:36:07.691Z,88.40
2022-11-24T07:39:10.012Z,89.19
2022-11-24T07:42:12.256Z,88.79
2022-11-24T07:45:15.686Z,88.06
2022-11-24T07:48:17.898Z,88.51
2022-11-24T07:51:20.119Z,88.23
2022-11-24T07:54:22.344Z,88.45
2022-11-24T07:57:24.608Z,87.96
2022-11-24T08:00:29.625Z,87.86
2022-11-24T08:03:31.963Z,87.15
2022-11-24T08:06:39.808Z,87.73
2022-11-24T08:09:44.235Z,87.20
2022-11-24T08:12:46.582Z,87.56
2022-11-24T08:15:48.844Z,86.64
2022-11-24T08:18:53.478Z,86.90
2022-11-24T08:21:55.711Z,86.63
2022-11-24T08:24:57.920Z,86.53
2022-11-24T08:28:01.639Z,86.54
2022-11-24T08:31:07.315Z,85.96
2022-11-24T08:34:10.120Z,86.38
2022-11-24T08:37:12.559Z,85.92
2022-11-24T08:40:14.945Z,85.50
2022-11-24T08:43:17.215Z,85.58
2022-11-24T08:46:20.211Z,85.27
2022-11-24T08:49:31.921Z,85.80
2022-11-24T08:52:37.143Z,84.93
2022-11-24T08:55:39.570Z,85.22
2022-11-24T08:58:45.924Z,84.55
2022-11-24T09:01:49.459Z,84.22
2022-11-24T09:04:52.483Z,83.99
2022-11-24T09:07:54.897Z,83.70
2022-11-24T09:11:02.075Z,83.36
2022-11-24T09:14:04.454Z,82.62
2022-11-24T09:17:06.919Z,82.60
2022-11-24T09:20:10.312Z,81.34
2022-11-24T09:23:13.046Z,80.65
2022-11-24T09:26:17.913Z,79.65
2022-11-24T09:29:20.266Z,80.16
2022-11-24T09:32:22.690Z,79.81
2022-11-24T09:35:27.049Z,81.00
2022-11-24T09:38:31.391Z,81.71
2022-11-24T09:41:49.740Z,81.91
2022-11-24T09:45:15.432Z,82.32
2022-11-24T09:48:38.521Z,83.10
2022-11-24T09:51:44.390Z,83.04
2022-11-24T09:54:56.745Z,82.84
2022-11-24T09:58:21.356Z,83.72
2022-11-24T10:01:37.663Z,83.90
2022-11-24T10:04:43.650Z,83.06
2022-11-24T10:08:03.714Z,83.43
2022-11-24T10:11:13.964Z,83.34
2022-11-24T10:14:37.268Z,83.00
2022-11-24T10:17:42.393Z,83.54
2022-11-24T10:21:13.856Z,83.68
2022-11-24T10:24:58.057Z,83.82
2022-11-24T10:28:13.577Z,83.68
2022-11-24T10:31:33.064Z,83.13
2022-11-24T10:34:42.172Z,83.24
2022-11-24T10:38:21.241Z,83.83
2022-11-24T10:41:36.319Z,82.62
2022-11-24T10:44:42.242Z,81.10
2022-11-24T10:47:45.477Z,82.26
2022-11-24T10:50:47.826Z,81.97
2022-11-24T10:53:54.438Z,81.47
2022-11-24T10:57:02.593Z,81.57
2022-11-24T11:00:34.502Z,81.70
2022-11-24T11:03:50.952Z,81.88
2022-11-24T11:07:07.934Z,80.53
2022-11-24T11:10:24.224Z,80.45
2022-11-24T11:13:29.549Z,80.92
2022-11-24T11:16:46.341Z,81.33
2022-11-24T11:19:56.908Z,81.64
2022-11-24T11:23:03.335Z,80.60
2022-11-24T11:26:24.081Z,80.00
2022-11-24T11:36:18.616Z,72.81
2022-11-24T11:39:31.740Z,71.82
2022-11-24T11:46:07.379Z,71.18
2022-11-24T11:49:14.326Z,69.73
2022-11-24T11:52:25.552Z,67.05
2022-11-24T11:55:49.565Z,63.25
2022-11-24T11:59:07.196Z,54.87
2022-11-24T12:02:18.729Z,50.33
2022-11-24T12:05:37.428Z,46.82
2022-11-24T12:09:17.814Z,46.60
2022-11-24T12:12:17.411Z,46.83
2022-11-24T12:15:42.187Z,45.41
2022-11-24T12:19:05.297Z,49.49
2022-11-24T12:22:48.082Z,48.46
2022-11-24T12:26:29.282Z,46.03
2022-11-24T12:30:00.205Z,45.59
2022-11-24T12:33:37.548Z,45.83
2022-11-24T12:36:54.783Z,42.77
2022-11-24T12:40:14.737Z,41.30
2022-11-24T12:43:32.050Z,43.42
2022-11-24T12:46:50.161Z,44.34
2022-11-24T12:50:08.178Z,45.03
2022-11-24T12:53:19.293Z,49.64
2022-11-24T12:56:31.519Z,54.57
2022-11-24T13:00:22.542Z,59.30
2022-11-24T13:03:36.952Z,62.49
2022-11-24T13:06:49.979Z,65.42
2022-11-24T13:10:54.683Z,66.34
2022-11-24T13:14:06.104Z,65.49
2022-11-24T13:17:39.595Z,58.95
2022-11-24T13:20:52.453Z,59.91
2022-11-24T13:24:23.107Z,59.27
2022-11-24T13:27:38.981Z,58.33
2022-11-24T13:30:43.796Z,61.50
2022-11-24T13:33:46.153Z,62.89
2022-11-24T13:36:54.333Z,63.52
2022-11-24T13:40:00.509Z,61.67
2022-11-24T13:43:02.699Z,61.61
2022-11-24T13:46:05.014Z,63.80
2022-11-24T13:49:14.004Z,64.92
2022-11-24T13:52:34.616Z,62.89
2022-11-24T13:55:39.938Z,59.61
2022-11-24T13:58:47.680Z,56.25
2022-11-24T14:01:57.630Z,58.73
2022-11-24T14:05:00.003Z,62.10
2022-11-24T14:08:03.140Z,65.49
2022-11-24T14:11:14.648Z,68.04
2022-11-24T14:14:21.751Z,70.08
2022-11-24T14:17:28.786Z,70.88
2022-11-24T14:20:31.214Z,71.43
2022-11-24T14:23:33.496Z,71.65
2022-11-24T14:26:40.127Z,72.43
2022-11-24T14:29:56.841Z,73.18
2022-11-24T14:33:03.694Z,73.64
2022-11-24T14:36:06.065Z,74.32
2022-11-24T14:39:13.452Z,75.16
2022-11-24T14:42:20.309Z,74.93
2022-11-24T14:45:22.579Z,75.60
2022-11-24T14:48:30.737Z,75.78
2022-11-24T14:51:35.798Z,76.00
2022-11-24T14:54:46.675Z,76.11
2022-11-24T14:57:48.897Z,77.27
2022-11-24T15:01:18.276Z,76.98
2022-11-24T15:05:01.131Z,77.45
2022-11-24T15:07:50.128Z,77.49
2022-11-24T15:11:01.271Z,77.68
2022-11-24T15:14:03.514Z,78.41
2022-11-24T15:17:05.801Z,78.32
2022-11-24T15:20:36.932Z,79.01
2022-11-24T15:23:43.343Z,79.24
2022-11-24T15:26:46.495Z,79.42
2022-11-24T15:29:48.704Z,79.17
2022-11-24T15:32:58.273Z,80.34
2022-11-24T15:36:00.666Z,81.42
2022-11-24T15:39:02.928Z,82.12
2022-11-24T15:42:05.201Z,82.52
2022-11-24T15:45:07.857Z,82.66
2022-11-24T15:48:13.546Z,82.76
2022-11-24T15:51:20.136Z,82.96
2022-11-24T15:54:23.907Z,83.53
2022-11-24T15:57:26.217Z,83.03
2022-11-24T16:00:28.550Z,82.71
2022-11-24T16:03:47.989Z,83.14
2022-11-24T16:06:50.942Z,83.88
2022-11-24T16:09:53.262Z,83.94
2022-11-24T16:12:55.636Z,84.20
2022-11-24T16:15:57.914Z,85.03
2022-11-24T16:19:00.179Z,84.69
2022-11-24T16:22:09.278Z,85.13
2022-11-24T16:25:12.134Z,85.35
2022-11-24T16:28:14.420Z,85.57
2022-11-24T16:31:18.096Z,85.13
2022-11-24T16:34:20.372Z,85.82
2022-11-24T16:37:22.826Z,85.43
2022-11-24T16:40:26.423Z,85.46
2022-11-24T16:43:29.356Z,85.37
2022-11-24T16:46:31.614Z,85.20
2022-11-24T16:49:33.924Z,85.64
2022-11-24T16:52:36.494Z,85.81
2022-11-24T16:55:38.707Z,86.12
2022-11-24T16:58:41.532Z,85.74
2022-11-24T17:01:46.655Z,85.75
2022-11-24T17:04:52.267Z,86.26
2022-11-24T17:07:54.506Z,86.15
2022-11-24T17:10:56.843Z,86.27
2022-11-24T17:13:59.155Z,86.27
2022-11-24T17:17:01.471Z,87.28
2022-11-24T17:20:03.993Z,87.59
2022-11-24T17:23:06.259Z,87.52
2022-11-24T17:26:12.154Z,88.15
2022-11-24T17:29:14.368Z,88.70
2022-11-24T17:32:16.631Z,89.53
2022-11-24T17:35:18.940Z,89.57
2022-11-24T17:38:21.187Z,90.01
2022-11-24T17:41:23.553Z,90.22
2022-11-24T17:44:26.918Z,90.24
2022-11-24T17:47:30.244Z,90.65
2022-11-24T17:50:32.435Z,90.83
2022-11-24T17:53:37.639Z,91.18
2022-11-24T17:56:42.625Z,91.30
2022-11-24T17:59:44.964Z,91.56
2022-11-24T18:02:47.207Z,91.77
2022-11-24T18:05:50.201Z,91.63
2022-11-24T18:08:54.167Z,91.31
2022-11-24T18:11:56.505Z,91.66
2022-11-24T18:14:58.756Z,91.92
2022-11-24T18:18:01.837Z,91.99
2022-11-24T18:21:04.402Z,92.15
2022-11-24T18:24:11.447Z,92.20
2022-11-24T18:27:13.692Z,92.54
2022-11-24T18:30:16.248Z,92.68
2022-11-24T18:33:21.368Z,92.99
2022-11-24T18:36:30.055Z,92.79
2022-11-24T18:39:32.929Z,92.71
2022-11-24T18:42:35.190Z,92.33
2022-11-24T18:45:38.662Z,92.30
2022-11-24T18:48:41.598Z,91.63
2022-11-24T18:51:44.136Z,91.13
2022-11-24T18:54:46.403Z,90.95
2022-11-24T18:57:48.696Z,90.72
2022-11-24T19:00:52.207Z,90.30
2022-11-24T19:03:57.096Z,90.89
2022-11-24T19:06:59.351Z,90.86
2022-11-24T19:10:01.590Z,90.86
2022-11-24T19:13:03.886Z,91.27
2022-11-24T19:16:11.772Z,91.38
2022-11-24T19:19:14.179Z,91.35
2022-11-24T19:22:16.482Z,91.48
2022-11-24T19:25:19.174Z,91.57
2022-11-24T19:28:21.467Z,91.14
2022-11-24T19:31:25.309Z,91.62
2022-11-24T19:34:27.608Z,91.36
2022-11-24T19:37:29.903Z,90.98
2022-11-24T19:40:32.148Z,90.83
2022-11-24T19:43:35.039Z,90.85
2022-11-24T19:46:37.752Z,90.47
2022-11-24T19:49:39.999Z,90.29
2022-11-24T19:52:42.196Z,90.68
2022-11-24T19:55:44.437Z,90.66
2022-11-24T19:58:48.075Z,90.92
2022-11-24T20:01:50.344Z,90.98
2022-11-24T20:04:52.609Z,90.94
2022-11-24T20:07:54.988Z,91.17
2022-11-24T20:11:14.376Z,90.68
2022-11-24T20:14:18.415Z,90.71
2022-11-24T20:17:20.652Z,90.71
2022-11-24T20:20:22.891Z,90.48
2022-11-24T20:23:25.124Z,90.45
2022-11-24T20:26:31.185Z,90.65
2022-11-24T20:29:34.050Z,90.19
2022-11-24T20:32:36.291Z,90.11
2022-11-24T20:35:38.490Z,89.97
2022-11-24T20:38:48.519Z,89.29
2022-11-24T20:41:51.195Z,89.34
2022-11-24T20:44:53.571Z,89.54
2022-11-24T20:47:55.797Z,89.52
2022-11-24T20:51:08.848Z,89.41
2022-11-24T20:54:13.112Z,89.43
2022-11-24T20:57:15.470Z,89.69
2022-11-24T21:00:17.838Z,89.82
2022-11-24T21:03:20.093Z,89.20
2022-11-24T21:06:22.524Z,89.30
2022-11-24T21:09:27.211Z,89.16
2022-11-24T21:12:29.499Z,89.13
2022-11-24T21:15:31.739Z,89.46
2022-11-24T21:18:33.986Z,89.49
2022-11-24T21:21:37.018Z,89.11
2022-11-24T21:24:39.240Z,90.04
2022-11-24T21:27:41.447Z,89.87
2022-11-24T21:30:43.675Z,90.00
2022-11-24T21:33:48.429Z,89.86
2022-11-24T21:36:50.742Z,90.31
2022-11-24T21:39:53.104Z,90.53
2022-11-24T21:42:55.345Z,90.64
2022-11-24T21:46:16.387Z,90.37
2022-11-24T21:49:18.674Z,90.71
2022-11-24T21:52:22.073Z,90.60
2022-11-24T21:55:24.367Z,90.65
2022-11-24T21:58:27.655Z,90.63
2022-11-24T22:01:30.166Z,90.89
2022-11-24T22:04:32.555Z,91.14
2022-11-24T22:07:35.035Z,91.25
2022-11-24T22:10:37.350Z,91.33
2022-11-24T22:13:40.172Z,91.55
2022-11-24T22:16:42.545Z,91.55
2022-11-24T22:19:44.816Z,91.53
2022-11-24T22:22:47.095Z,91.70
2022-11-24T22:25:49.323Z,91.92
2022-11-24T22:28:53.005Z,92.03
2022-11-24T22:31:55.250Z,91.92
2022-11-24T22:34:57.509Z,92.03
2022-11-24T22:37:59.697Z,92.30
2022-11-24T22:41:09.810Z,92.60
2022-11-24T22:44:11.991Z,92.60
2022-11-24T22:47:14.236Z,92.93
2022-11-24T22:50:16.455Z,93.08
2022-11-24T22:53:18.697Z,92.94
2022-11-24T22:56:21.589Z,93.04
2022-11-24T22:59:23.919Z,93.29
2022-11-24T23:02:26.113Z,93.23
2022-11-24T23:05:29.256Z,93.53
2022-11-24T23:08:33.710Z,93.75
2022-11-24T23:11:38.813Z,94.12
2022-11-24T23:14:41.000Z,94.44
2022-11-24T23:17:43.254Z,94.45
2022-11-24T23:20:45.484Z,94.32
2022-11-24T23:23:48.640Z,94.27
2022-11-24T23:26:50.851Z,94.33
2022-11-24T23:29:53.106Z,94.68
2022-11-24T23:32:55.383Z,94.76
2022-11-24T23:36:12.423Z,94.71
2022-11-24T23:39:15.076Z,94.52
2022-11-24T23:42:17.284Z,94.34
2022-11-24T23:45:19.531Z,94.26
2022-11-24T23:48:21.788Z,94.13
2022-11-24T23:51:26.862Z,94.03
2022-11-24T23:54:29.072Z,93.58
2022-11-24T23:57:31.563Z,93.62
